Frankfurt am Main, Germany

5:11 PM CET on December 08, 2016 (GMT +0100)
Karlsbader Straße | | Change Station

Elev 367 ft 50.06 °N, 8.54 °E | Updated 6 minutes ago

Overcast
Overcast
33.6 °F
Feels Like 34 °F
N
0.6
Wind Variable Wind from East
Gusts 1.9 mph

Today
High -- | Low -- °F
--% Chance of Precip.
Yesterday
High -- | Low -- °F
Precip. -- in
Pressure 30.47 in
Visibility 0.5 miles
Clouds Mostly Cloudy 200 ft
Windchill 34 °F
Dew Point 31 °F
Humidity 90%
Rainfall Not available.
Snow Depth Not available.
8:11 AM 4:23 PM
Waxing Gibbous, 64% visible
SPECI ETOU 081606Z 20003KT 0800 R25/1300 FZFG BKN002 00/M01 A3047 RMK AO2A VIS 0800V1600
Pressure 30.47 in
Visibility 0.5 miles
Clouds Mostly Cloudy 200 ft
Windchill 34 °F
Dew Point 31 °F
Humidity 90%
Rainfall Not available.
Snow Depth Not available.
8:11 AM 4:23 PM
Waxing Gibbous, 64% visible
SPECI ETOU 081606Z 20003KT 0800 R25/1300 FZFG BKN002 00/M01 A3047 RMK AO2A VIS 0800V1600

10-Day Weather Forecast

×

Almanac

Astronomy

Dec. 08, 2016 Rise Set
Actual Time
Civil Twilight
Nautical Twilight
Astronomical Twilight
Moon
Length of Visible Light
Length of Day
Tomorrow will be .
, % of the Moon is Illuminated

Today's Extremes

Country Highs Country Lows

Community

WunderPhotos

Upload Photos

1,956,274 photos uploaded!

WunderBlog® & News

Nearby

Air Quality

  Air Quality AQ Index Pollutant
Not available.

Snow Depth

Station Depth Elevation

Earthquake Activity

City Distance Mag. Time & Date
Minimum magnitude displayed is 2.5.

Coastal Water Temperatures

Place Temperature

Stations

Nearby Weather Stations

Station Location Temp. Windchill Dew Point Humidity Wind Precip. Elev Updated Type